createdAt,value
2022-12-03T00:00:12.590Z,102608.72
2022-12-03T00:02:41.311Z,102602.59
2022-12-03T00:05:10.060Z,102607.34
2022-12-03T00:07:37.575Z,102613.31
2022-12-03T00:10:06.096Z,102610.59
2022-12-03T00:12:33.631Z,102613.38
2022-12-03T00:15:01.071Z,102603.38
2022-12-03T00:17:28.852Z,102610.59
2022-12-03T00:19:56.356Z,102605.19
2022-12-03T00:22:23.914Z,102595.22
2022-12-03T00:24:51.931Z,102609.75
2022-12-03T00:27:19.601Z,102604.53
2022-12-03T00:29:47.355Z,102612.47
2022-12-03T00:32:14.818Z,102606.78
2022-12-03T00:34:42.359Z,102604.75
2022-12-03T00:37:09.839Z,102611.56
2022-12-03T00:39:37.351Z,102614.97
2022-12-03T00:42:05.219Z,102604.72
2022-12-03T00:44:32.776Z,102616.03
2022-12-03T00:47:00.314Z,102616.94
2022-12-03T00:49:27.934Z,102614.66
2022-12-03T00:51:55.403Z,102615.38
2022-12-03T00:54:26.994Z,102616.28
2022-12-03T00:56:59.107Z,102623.78
2022-12-03T00:59:26.634Z,102621.66
2022-12-03T01:01:54.232Z,102627.81
2022-12-03T01:04:21.989Z,102625.25
2022-12-03T01:06:49.509Z,102630.28
2022-12-03T01:09:17.090Z,102634.59
2022-12-03T01:11:44.645Z,102624.97
2022-12-03T01:14:15.443Z,102632.88
2022-12-03T01:16:43.888Z,102634.41
2022-12-03T01:19:15.936Z,102635.75
2022-12-03T01:21:49.066Z,102635.47
2022-12-03T01:24:16.938Z,102633.38
2022-12-03T01:26:44.404Z,102640.59
2022-12-03T01:29:12.039Z,102639.41
2022-12-03T01:31:58.295Z,102639.31
2022-12-03T01:34:25.875Z,102637.38
2022-12-03T01:36:53.371Z,102634.44
2022-12-03T01:39:20.935Z,102646.50
2022-12-03T01:41:50.692Z,102637.84
2022-12-03T01:44:30.311Z,102648.09
2022-12-03T01:47:01.878Z,102647.13
2022-12-03T01:49:38.042Z,102643.25
2022-12-03T01:52:05.978Z,102644.22
2022-12-03T01:54:40.699Z,102648.47
2022-12-03T01:57:24.014Z,102645.16
2022-12-03T01:59:52.931Z,102649.47
2022-12-03T02:02:24.460Z,102644.63
2022-12-03T02:04:56.134Z,102656.88
2022-12-03T02:07:27.785Z,102650.13
2022-12-03T02:09:58.792Z,102651.72
2022-12-03T02:12:41.594Z,102643.56
2022-12-03T02:15:10.398Z,102648.97
2022-12-03T02:17:38.998Z,102651.94
2022-12-03T02:20:12.822Z,102649.91
2022-12-03T02:23:12.119Z,102659.03
2022-12-03T02:25:40.116Z,102659.25
2022-12-03T02:28:09.795Z,102648.78
2022-12-03T02:30:37.793Z,102655.78
2022-12-03T02:33:05.475Z,102656.19
2022-12-03T02:35:35.183Z,102659.41
2022-12-03T02:38:09.066Z,102654.38
2022-12-03T02:40:37.089Z,102650.91
2022-12-03T02:43:05.486Z,102653.78
2022-12-03T02:45:39.690Z,102659.44
2022-12-03T02:48:18.064Z,102663.69
2022-12-03T02:50:54.841Z,102653.97
2022-12-03T02:53:29.066Z,102652.09
2022-12-03T02:55:58.402Z,102665.69
2022-12-03T02:58:27.339Z,102662.06
2022-12-03T03:00:55.869Z,102663.41
2022-12-03T03:03:27.931Z,102672.47
2022-12-03T03:05:57.020Z,102668.19
2022-12-03T03:08:27.065Z,102679.03
2022-12-03T03:10:55.906Z,102672.69
2022-12-03T03:13:23.603Z,102671.78
2022-12-03T03:15:51.061Z,102679.47
2022-12-03T03:18:19.050Z,102670.19
2022-12-03T03:20:46.536Z,102677.47
2022-12-03T03:23:20.619Z,102677.06
2022-12-03T03:25:54.564Z,102674.03
2022-12-03T03:28:23.160Z,102679.19
2022-12-03T03:30:52.531Z,102684.16
2022-12-03T03:33:20.156Z,102686.84
2022-12-03T03:35:49.229Z,102684.34
2022-12-03T03:38:19.515Z,102684.81
2022-12-03T03:40:49.542Z,102686.56
2022-12-03T03:43:17.287Z,102692.41
2022-12-03T03:45:45.263Z,102694.25
2022-12-03T03:48:13.966Z,102681.03
2022-12-03T03:50:43.616Z,102685.50
2022-12-03T03:53:13.050Z,102690.75
2022-12-03T03:55:41.074Z,102690.19
2022-12-03T03:58:09.050Z,102695.41
2022-12-03T04:00:37.090Z,102695.09
2022-12-03T04:03:05.465Z,102699.41
2022-12-03T04:05:33.328Z,102705.28
2022-12-03T04:08:00.885Z,102708.22
2022-12-03T04:10:46.899Z,102712.78
2022-12-03T04:13:14.506Z,102696.38
2022-12-03T04:15:41.984Z,102696.38
2022-12-03T04:18:27.897Z,102705.97
2022-12-03T04:21:15.457Z,102709.06
2022-12-03T04:23:43.050Z,102706.66
2022-12-03T04:26:29.288Z,102712.16
2022-12-03T04:28:56.934Z,102719.19
2022-12-03T04:31:42.912Z,102712.16
2022-12-03T04:34:29.652Z,102718.94
2022-12-03T04:36:57.231Z,102723.41
2022-12-03T04:39:24.719Z,102715.47
2022-12-03T04:41:52.197Z,102725.56
2022-12-03T04:44:38.124Z,102713.97
2022-12-03T04:47:17.146Z,102730.72
2022-12-03T04:49:46.919Z,102731.44
2022-12-03T04:52:17.079Z,102733.94
2022-12-03T04:54:44.856Z,102751.13
2022-12-03T04:57:13.760Z,102743.50
2022-12-03T04:59:41.395Z,102745.31
2022-12-03T05:02:09.004Z,102743.66
2022-12-03T05:04:36.965Z,102752.94
2022-12-03T05:07:04.533Z,102751.75
2022-12-03T05:09:33.129Z,102748.34
2022-12-03T05:12:01.118Z,102747.91
2022-12-03T05:14:28.620Z,102742.28
2022-12-03T05:16:56.256Z,102760.47
2022-12-03T05:19:43.741Z,102752.41
2022-12-03T05:22:11.231Z,102759.41
2022-12-03T05:24:38.728Z,102755.59
2022-12-03T05:27:06.275Z,102760.56
2022-12-03T05:29:33.839Z,102768.69
2022-12-03T05:32:01.321Z,102777.75
2022-12-03T05:34:28.888Z,102764.28
2022-12-03T05:36:56.434Z,102775.78
2022-12-03T05:39:26.508Z,102780.91
2022-12-03T05:42:12.882Z,102785.06
2022-12-03T05:44:40.573Z,102781.94
2022-12-03T05:47:10.287Z,102789.72
2022-12-03T05:49:37.903Z,102786.81
2022-12-03T05:52:05.639Z,102773.16
2022-12-03T05:54:33.140Z,102776.72
2022-12-03T05:57:00.644Z,102775.88
2022-12-03T05:59:28.395Z,102784.47
2022-12-03T06:01:56.455Z,102773.03
2022-12-03T06:04:24.383Z,102778.72
2022-12-03T06:06:52.556Z,102776.53
2022-12-03T06:09:20.578Z,102778.81
2022-12-03T06:11:53.625Z,102780.75
2022-12-03T06:14:21.520Z,102779.41
2022-12-03T06:16:49.047Z,102769.19
2022-12-03T06:19:16.581Z,102779.72
2022-12-03T06:21:44.057Z,102768.38
2022-12-03T06:24:11.486Z,102770.09
2022-12-03T06:26:40.007Z,102775.38
2022-12-03T06:29:07.459Z,102776.63
2022-12-03T06:31:35.068Z,102774.94
2022-12-03T06:34:02.594Z,102782.31
2022-12-03T06:36:30.198Z,102775.63
2022-12-03T06:38:57.640Z,102767.06
2022-12-03T06:41:25.078Z,102773.53
2022-12-03T06:43:52.605Z,102767.97
2022-12-03T06:46:20.237Z,102775.59
2022-12-03T06:48:47.745Z,102766.53
2022-12-03T06:51:15.303Z,102771.06
2022-12-03T06:53:42.860Z,102767.91
2022-12-03T06:56:10.309Z,102762.78
2022-12-03T06:58:37.761Z,102764.44
2022-12-03T07:01:05.490Z,102769.72
2022-12-03T07:03:32.948Z,102766.63
2022-12-03T07:06:00.456Z,102758.81
2022-12-03T07:08:28.365Z,102757.09
2022-12-03T07:10:56.010Z,102758.34
2022-12-03T07:13:23.493Z,102749.28
2022-12-03T07:15:52.574Z,102758.47
2022-12-03T07:18:22.778Z,102751.84
2022-12-03T07:20:50.334Z,102759.16
2022-12-03T07:23:17.833Z,102748.66
2022-12-03T07:25:45.331Z,102754.13
2022-12-03T07:28:12.734Z,102765.06
2022-12-03T07:30:40.210Z,102756.00
2022-12-03T07:33:10.101Z,102762.22
2022-12-03T07:35:37.510Z,102743.13
2022-12-03T07:38:05.022Z,102758.63
2022-12-03T07:40:32.446Z,102767.06
2022-12-03T07:42:59.950Z,102761.44
2022-12-03T07:45:27.423Z,102757.59
2022-12-03T07:47:54.944Z,102757.59
2022-12-03T07:50:22.519Z,102747.84
2022-12-03T07:52:49.981Z,102756.50
2022-12-03T07:55:17.493Z,102751.06
2022-12-03T07:57:45.033Z,102750.84
2022-12-03T08:00:13.077Z,102750.84
2022-12-03T08:02:40.629Z,102744.97
2022-12-03T08:05:08.311Z,102735.88
2022-12-03T08:07:35.831Z,102743.56
2022-12-03T08:10:05.283Z,102736.06
2022-12-03T08:12:41.297Z,102742.22
2022-12-03T08:15:16.305Z,102741.97
2022-12-03T08:17:45.851Z,102738.06
2022-12-03T08:20:16.201Z,102739.44
2022-12-03T08:22:46.010Z,102736.00
2022-12-03T08:25:24.984Z,102729.59
2022-12-03T08:27:57.997Z,102725.00
2022-12-03T08:30:25.620Z,102738.91
2022-12-03T08:32:54.033Z,102735.03
2022-12-03T08:35:25.200Z,102735.47
2022-12-03T08:38:11.515Z,102732.44
2022-12-03T08:40:45.742Z,102727.66
2022-12-03T08:43:23.264Z,102733.56
2022-12-03T08:45:55.899Z,102730.84
2022-12-03T08:48:39.248Z,102736.00
2022-12-03T08:51:27.763Z,102734.84
2022-12-03T08:54:13.688Z,102721.16
2022-12-03T08:56:41.741Z,102728.25
2022-12-03T08:59:33.103Z,102731.38
2022-12-03T09:02:00.728Z,102726.84
2022-12-03T09:04:38.981Z,102728.66
2022-12-03T09:07:06.698Z,102732.97
2022-12-03T09:09:35.012Z,102737.97
2022-12-03T09:12:04.241Z,102725.03
2022-12-03T09:14:31.750Z,102727.34
2022-12-03T09:16:59.284Z,102720.94
2022-12-03T09:19:31.068Z,102730.03
2022-12-03T09:21:58.799Z,102727.53
2022-12-03T09:24:26.248Z,102726.13
2022-12-03T09:26:53.732Z,102727.03
2022-12-03T09:29:21.288Z,102722.00
2022-12-03T09:31:48.875Z,102732.47
2022-12-03T09:34:16.496Z,102727.72
2022-12-03T09:36:44.045Z,102728.13
2022-12-03T09:39:11.605Z,102718.09
2022-12-03T09:41:39.305Z,102717.69
2022-12-03T09:44:10.804Z,102715.81
2022-12-03T09:46:44.016Z,102723.53
2022-12-03T09:49:16.099Z,102724.47
2022-12-03T09:51:45.477Z,102722.22
2022-12-03T09:54:24.676Z,102722.91
2022-12-03T09:56:54.015Z,102718.63
2022-12-03T09:59:23.359Z,102720.00
2022-12-03T10:01:52.017Z,102714.59
2022-12-03T10:04:20.210Z,102723.22
2022-12-03T10:06:47.966Z,102725.06
2022-12-03T10:09:23.686Z,102719.41
2022-12-03T10:11:51.285Z,102733.28
2022-12-03T10:14:20.188Z,102721.91
2022-12-03T10:16:48.341Z,102724.63
2022-12-03T10:19:29.403Z,102723.84
2022-12-03T10:21:59.959Z,102717.50
2022-12-03T10:24:30.461Z,102719.72
2022-12-03T10:27:00.398Z,102718.81
2022-12-03T10:29:34.715Z,102719.91
2022-12-03T10:32:04.260Z,102719.41
2022-12-03T10:34:34.935Z,102724.41
2022-12-03T10:37:10.171Z,102721.19
2022-12-03T10:39:56.545Z,102727.72
2022-12-03T10:42:26.773Z,102721.00
2022-12-03T10:45:14.118Z,102723.91
2022-12-03T10:47:43.311Z,102725.97
2022-12-03T10:50:17.871Z,102721.19
2022-12-03T10:52:46.773Z,102723.72
2022-12-03T10:55:16.229Z,102724.88
2022-12-03T10:57:46.174Z,102721.50
2022-12-03T11:00:19.100Z,102716.94
2022-12-03T11:02:54.904Z,102724.66
2022-12-03T11:05:28.512Z,102727.78
2022-12-03T11:07:57.103Z,102718.66
2022-12-03T11:10:25.374Z,102728.22
2022-12-03T11:13:30.478Z,102732.50
2022-12-03T11:15:58.662Z,102722.09
2022-12-03T11:18:38.062Z,102724.38
2022-12-03T11:21:07.263Z,102726.25
2022-12-03T11:23:46.819Z,102725.81
2022-12-03T11:26:29.414Z,102731.06
2022-12-03T11:28:58.643Z,102730.56
2022-12-03T11:31:46.636Z,102721.91
2022-12-03T11:34:17.283Z,102734.19
2022-12-03T11:37:12.375Z,102729.63
2022-12-03T11:39:52.745Z,102731.94
2022-12-03T11:42:26.716Z,102734.09
2022-12-03T11:45:06.561Z,102729.53
2022-12-03T11:47:39.062Z,102732.94
2022-12-03T11:50:39.060Z,102729.53
2022-12-03T11:53:35.134Z,102727.69
2022-12-03T11:56:13.488Z,102715.41
2022-12-03T11:58:45.341Z,102715.66
2022-12-03T12:01:14.657Z,102729.84
2022-12-03T12:03:45.215Z,102724.84
2022-12-03T12:06:15.530Z,102727.13
2022-12-03T12:08:52.138Z,102728.00
2022-12-03T12:11:25.678Z,102736.19
2022-12-03T12:14:01.442Z,102721.22
2022-12-03T12:16:52.433Z,102735.03
2022-12-03T12:19:36.324Z,102744.56
2022-12-03T12:22:17.022Z,102741.41
2022-12-03T12:24:52.849Z,102738.91
2022-12-03T12:27:45.171Z,102726.13
2022-12-03T12:30:12.823Z,102732.53
2022-12-03T12:32:47.301Z,102725.91
2022-12-03T12:35:28.841Z,102729.81
2022-12-03T12:38:10.900Z,102731.84
2022-12-03T12:40:45.069Z,102723.44
2022-12-03T12:43:33.020Z,102733.69
2022-12-03T12:46:38.606Z,102732.09
2022-12-03T12:48:59.419Z,102725.28
2022-12-03T12:51:27.310Z,102727.97
2022-12-03T12:53:54.869Z,102724.78
2022-12-03T12:56:32.846Z,102736.63
2022-12-03T12:59:32.845Z,102733.38
2022-12-03T13:02:02.527Z,102729.59
2022-12-03T13:04:32.332Z,102732.75
2022-12-03T13:06:59.972Z,102727.56
2022-12-03T13:09:27.435Z,102722.06
2022-12-03T13:11:59.941Z,102722.56
2022-12-03T13:14:45.572Z,102730.50
2022-12-03T13:17:20.739Z,102726.88
2022-12-03T13:19:53.910Z,102734.16
2022-12-03T13:22:25.793Z,102749.16
2022-12-03T13:24:56.252Z,102743.75
2022-12-03T13:27:29.764Z,102738.75
2022-12-03T13:30:01.747Z,102736.91
2022-12-03T13:32:34.128Z,102735.72
2022-12-03T13:35:13.296Z,102741.00
2022-12-03T13:37:40.939Z,102743.72
2022-12-03T13:40:27.467Z,102738.91
2022-12-03T13:42:55.239Z,102746.25
2022-12-03T13:45:24.899Z,102755.59
2022-12-03T13:47:58.352Z,102738.97
2022-12-03T13:50:36.651Z,102743.06
2022-12-03T13:53:22.972Z,102750.31
2022-12-03T13:56:16.528Z,102740.09
2022-12-03T13:58:44.083Z,102753.31
2022-12-03T14:01:11.615Z,102748.75
2022-12-03T14:03:39.147Z,102738.06
2022-12-03T14:06:07.142Z,102749.41
2022-12-03T14:08:34.583Z,102748.06
2022-12-03T14:11:02.686Z,102741.03
2022-12-03T14:13:30.167Z,102735.81
2022-12-03T14:15:57.673Z,102751.06
2022-12-03T14:18:25.235Z,102743.31
2022-12-03T14:20:52.711Z,102748.06
2022-12-03T14:23:20.118Z,102745.56
2022-12-03T14:25:47.650Z,102757.41
2022-12-03T14:28:15.046Z,102760.34
2022-12-03T14:30:42.513Z,102754.44
2022-12-03T14:33:10.094Z,102754.16
2022-12-03T14:35:37.507Z,102759.88
2022-12-03T14:38:04.933Z,102765.31
2022-12-03T14:40:32.422Z,102753.72
2022-12-03T14:42:59.833Z,102761.25
2022-12-03T14:45:30.058Z,102759.41
2022-12-03T14:47:57.547Z,102765.56
2022-12-03T14:50:26.296Z,102759.19
2022-12-03T14:52:53.820Z,102759.19
2022-12-03T14:55:21.343Z,102768.03
2022-12-03T14:57:48.906Z,102761.91
2022-12-03T15:00:16.982Z,102769.41
2022-12-03T15:02:44.569Z,102761.22
2022-12-03T15:05:12.035Z,102764.19
2022-12-03T15:07:39.580Z,102772.88
2022-12-03T15:10:08.235Z,102769.00
2022-12-03T15:12:35.730Z,102758.28
2022-12-03T15:15:03.498Z,102762.59
2022-12-03T15:17:32.272Z,102769.47
2022-12-03T15:20:00.175Z,102769.00
2022-12-03T15:22:27.733Z,102759.19
2022-12-03T15:24:55.176Z,102759.00
2022-12-03T15:27:22.706Z,102766.03
2022-12-03T15:29:50.113Z,102774.00
2022-12-03T15:32:17.600Z,102777.88
2022-12-03T15:34:45.133Z,102774.94
2022-12-03T15:37:12.652Z,102769.72
2022-12-03T15:39:45.090Z,102764.91
2022-12-03T15:42:15.913Z,102762.63
2022-12-03T15:44:43.457Z,102769.00
2022-12-03T15:47:10.876Z,102772.88
2022-12-03T15:49:38.396Z,102773.56
2022-12-03T15:52:06.075Z,102770.84
2022-12-03T15:54:33.907Z,102771.97
2022-12-03T15:57:01.421Z,102769.69
2022-12-03T15:59:28.892Z,102779.69
2022-12-03T16:01:56.528Z,102776.50
2022-12-03T16:04:24.020Z,102776.25
2022-12-03T16:06:51.473Z,102770.53
2022-12-03T16:09:23.754Z,102780.34
2022-12-03T16:11:54.384Z,102787.22
2022-12-03T16:14:21.983Z,102774.69
2022-12-03T16:16:49.443Z,102769.69
2022-12-03T16:19:16.878Z,102774.91
2022-12-03T16:21:44.332Z,102782.63
2022-12-03T16:24:12.032Z,102778.09
2022-12-03T16:26:39.485Z,102779.72
2022-12-03T16:29:07.110Z,102787.22
2022-12-03T16:31:34.648Z,102791.09
2022-12-03T16:34:02.204Z,102791.09
2022-12-03T16:36:29.652Z,102777.19
2022-12-03T16:38:58.170Z,102795.41
2022-12-03T16:41:25.803Z,102779.47
2022-12-03T16:43:53.295Z,102779.69
2022-12-03T16:46:21.238Z,102794.28
2022-12-03T16:48:48.871Z,102811.38
2022-12-03T16:51:19.386Z,102804.56
2022-12-03T16:53:47.312Z,102793.63
2022-12-03T16:56:15.362Z,102800.66
2022-12-03T16:58:43.070Z,102795.44
2022-12-03T17:01:10.657Z,102794.06
2022-12-03T17:03:38.326Z,102793.63
2022-12-03T17:06:06.136Z,102794.09
2022-12-03T17:08:33.762Z,102788.84
2022-12-03T17:11:05.786Z,102803.63
2022-12-03T17:13:33.280Z,102793.63
2022-12-03T17:16:02.001Z,102787.94
2022-12-03T17:18:29.590Z,102792.94
2022-12-03T17:20:57.183Z,102795.66
2022-12-03T17:23:24.742Z,102801.34
2022-12-03T17:25:52.378Z,102798.59
2022-12-03T17:28:21.667Z,102814.53
2022-12-03T17:30:49.443Z,102814.56
2022-12-03T17:33:17.079Z,102816.81
2022-12-03T17:35:46.083Z,102815.91
2022-12-03T17:38:13.599Z,102810.19
2022-12-03T17:40:43.825Z,102819.56
2022-12-03T17:43:11.390Z,102804.53
2022-12-03T17:45:38.919Z,102811.81
2022-12-03T17:48:18.449Z,102817.06
2022-12-03T17:55:02.015Z,102817.28
2022-12-03T17:58:27.792Z,102808.88
2022-12-03T18:01:50.731Z,102809.09
2022-12-03T18:04:49.090Z,102809.09
2022-12-03T18:11:34.557Z,102810.47
2022-12-03T18:14:16.992Z,102816.38
2022-12-03T18:16:59.312Z,102813.66
2022-12-03T18:19:35.614Z,102813.41
2022-12-03T18:22:03.134Z,102817.75
2022-12-03T18:24:30.701Z,102820.03
2022-12-03T18:27:36.356Z,102816.41
2022-12-03T18:30:04.630Z,102815.50
2022-12-03T18:32:32.618Z,102815.94
2022-12-03T18:35:00.247Z,102820.00
2022-12-03T18:37:29.366Z,102817.28
2022-12-03T18:39:58.121Z,102814.34
2022-12-03T18:42:26.275Z,102826.63
2022-12-03T18:44:56.104Z,102815.25
2022-12-03T18:47:27.699Z,102831.38
2022-12-03T18:49:56.052Z,102834.31
2022-12-03T18:52:25.306Z,102837.94
2022-12-03T18:54:55.503Z,102846.59
2022-12-03T18:57:22.995Z,102836.38
2022-12-03T18:59:50.585Z,102839.38
2022-12-03T19:05:09.445Z,102837.09
2022-12-03T19:07:37.155Z,102840.97
2022-12-03T19:10:05.458Z,102833.03
2022-12-03T19:12:33.470Z,102830.72
2022-12-03T19:15:01.250Z,102844.63
2022-12-03T19:17:28.909Z,102852.38
2022-12-03T19:19:56.731Z,102849.63
2022-12-03T19:22:24.678Z,102841.88
2022-12-03T19:24:52.418Z,102840.97
2022-12-03T19:27:20.194Z,102833.69
2022-12-03T19:29:51.170Z,102850.53
2022-12-03T19:32:18.741Z,102852.38
2022-12-03T19:34:46.732Z,102855.09
2022-12-03T19:37:14.487Z,102859.63
2022-12-03T19:39:43.276Z,102853.03
2022-12-03T19:42:10.824Z,102845.31
2022-12-03T19:44:39.175Z,102855.31
2022-12-03T19:47:06.691Z,102849.19
2022-12-03T19:49:34.242Z,102846.22
2022-12-03T19:52:01.739Z,102843.94
2022-12-03T19:54:29.206Z,102840.97
2022-12-03T19:56:56.802Z,102836.00
2022-12-03T19:59:24.331Z,102839.38
2022-12-03T20:01:51.965Z,102841.19
2022-12-03T20:04:19.623Z,102836.88
2022-12-03T20:06:47.648Z,102844.63
2022-12-03T20:09:18.219Z,102835.94
2022-12-03T20:12:05.876Z,102838.47
2022-12-03T20:14:34.673Z,102847.56
2022-12-03T20:17:02.154Z,102852.59
2022-12-03T20:19:29.765Z,102846.22
2022-12-03T20:22:02.285Z,102844.41
2022-12-03T20:24:30.529Z,102847.78
2022-12-03T20:26:58.016Z,102845.06
2022-12-03T20:29:25.530Z,102850.97
2022-12-03T20:31:53.603Z,102853.94
2022-12-03T20:34:21.187Z,102859.19
2022-12-03T20:36:48.738Z,102848.47
2022-12-03T20:39:16.297Z,102853.97
2022-12-03T20:41:43.833Z,102858.50
2022-12-03T20:44:11.603Z,102855.09
2022-12-03T20:46:39.667Z,102857.81
2022-12-03T20:49:07.245Z,102860.34
2022-12-03T20:51:35.074Z,102850.53
2022-12-03T20:54:02.779Z,102842.78
2022-12-03T20:56:36.669Z,102851.00
2022-12-03T20:59:06.619Z,102837.53
2022-12-03T21:01:36.416Z,102842.31
2022-12-03T21:04:05.500Z,102851.91
2022-12-03T21:06:35.895Z,102841.91
2022-12-03T21:09:06.443Z,102857.16
2022-12-03T21:11:36.069Z,102841.19
2022-12-03T21:14:04.615Z,102849.16
2022-12-03T21:17:06.126Z,102847.56
2022-12-03T21:19:22.962Z,102843.94
2022-12-03T21:21:50.532Z,102834.16
2022-12-03T21:24:18.011Z,102844.84
2022-12-03T21:26:45.771Z,102849.38
2022-12-03T21:29:13.334Z,102841.88
2022-12-03T21:31:40.996Z,102841.22
2022-12-03T21:34:08.921Z,102840.97
2022-12-03T21:36:36.545Z,102839.84
2022-12-03T21:39:05.909Z,102842.34
2022-12-03T21:41:35.220Z,102835.75
2022-12-03T21:44:03.307Z,102840.97
2022-12-03T21:47:10.775Z,102836.44
2022-12-03T21:49:20.351Z,102840.53
2022-12-03T21:51:47.996Z,102832.34
2022-12-03T21:54:15.778Z,102835.97
2022-12-03T21:56:43.499Z,102853.03
2022-12-03T21:59:11.087Z,102839.81
2022-12-03T22:01:42.752Z,102841.22
2022-12-03T22:04:13.123Z,102837.09
2022-12-03T22:06:40.590Z,102835.50
2022-12-03T22:09:08.060Z,102826.38
2022-12-03T22:11:35.599Z,102840.06
2022-12-03T22:14:04.831Z,102845.06
2022-12-03T22:16:32.557Z,102835.50
2022-12-03T22:19:00.235Z,102842.09
2022-12-03T22:21:27.893Z,102846.88
2022-12-03T22:23:56.194Z,102830.03
2022-12-03T22:26:23.753Z,102835.28
2022-12-03T22:28:51.585Z,102829.56
2022-12-03T22:31:19.234Z,102829.34
2022-12-03T22:33:48.624Z,102830.53
2022-12-03T22:36:21.056Z,102832.78
2022-12-03T22:38:50.555Z,102832.09
2022-12-03T22:41:18.666Z,102832.78
2022-12-03T22:43:47.601Z,102835.94
2022-12-03T22:46:16.291Z,102835.50
2022-12-03T22:48:45.375Z,102835.03
2022-12-03T22:51:17.489Z,102838.47
2022-12-03T22:53:45.131Z,102830.47
2022-12-03T22:56:13.136Z,102833.69
2022-12-03T22:58:40.771Z,102840.72
2022-12-03T23:01:08.800Z,102827.06
2022-12-03T23:03:36.848Z,102836.66
2022-12-03T23:06:11.597Z,102826.41
2022-12-03T23:08:39.363Z,102838.69
2022-12-03T23:11:07.900Z,102837.78
2022-12-03T23:13:35.599Z,102840.97
2022-12-03T23:16:04.050Z,102837.13
2022-12-03T23:18:32.167Z,102834.13
2022-12-03T23:21:00.638Z,102844.63
2022-12-03T23:23:28.190Z,102850.31
2022-12-03T23:26:07.347Z,102846.44
2022-12-03T23:28:36.650Z,102847.78
2022-12-03T23:31:06.245Z,102850.56
2022-12-03T23:33:38.119Z,102852.59
2022-12-03T23:36:07.196Z,102856.22
2022-12-03T23:38:34.675Z,102862.81
2022-12-03T23:41:11.357Z,102856.00
2022-12-03T23:43:40.143Z,102852.59
2022-12-03T23:46:10.594Z,102861.91
2022-12-03T23:48:38.213Z,102857.81
2022-12-03T23:51:13.898Z,102859.59
2022-12-03T23:53:41.963Z,102867.09
2022-12-03T23:56:15.183Z,102857.53
2022-12-03T23:58:43.331Z,102865.50
